Time;durP1;ratioP1;P1;durP2;ratioP2;P2;SDS_P1;SDS_P2;PMS_P1;PMS_P2;Temp;Humidity;BMP_temperature;BMP_pressure;BME280_temperature;BME280_humidity;BME280_pressure;Samples;Min_cycle;Max_cycle;Signal;HPM_P1;HPM_P2
2023/03/25 00:01:28;;;;;;;4.03;2.80;;;;;;;7.14;100.00;99820.09;7398227;19;20481;-69
2023/03/25 00:03:57;;;;;;;6.10;3.10;;;;;;;7.11;100.00;99814.94;7396745;19;20357;-70
2023/03/25 00:06:25;;;;;;;7.47;3.03;;;;;;;7.14;100.00;99820.09;7398041;19;20508;-69
2023/03/25 00:08:54;;;;;;;4.93;3.38;;;;;;;7.16;100.00;99817.44;7398458;19;20081;-69
2023/03/25 00:11:22;;;;;;;4.03;2.45;;;;;;;7.18;100.00;99818.28;7399190;19;20019;-68
2023/03/25 00:13:53;;;;;;;8.93;3.05;;;;;;;7.20;100.00;99818.25;7396870;19;20086;-68
2023/03/25 00:16:22;;;;;;;3.53;2.65;;;;;;;7.21;100.00;99826.03;7398500;19;20017;-69
2023/03/25 00:18:50;;;;;;;6.13;2.40;;;;;;;7.20;100.00;99819.09;7398012;19;20073;-68
2023/03/25 00:21:20;;;;;;;6.38;2.72;;;;;;;7.26;100.00;99829.38;7398018;19;20090;-68
2023/03/25 00:23:48;;;;;;;5.00;2.42;;;;;;;7.28;100.00;99826.75;7396690;19;20014;-69
2023/03/25 00:26:17;;;;;;;9.27;3.80;;;;;;;7.27;100.00;99820.69;7397691;19;20414;-69
2023/03/25 00:28:45;;;;;;;5.63;2.85;;;;;;;7.28;100.00;99831.97;7397371;19;20017;-68
2023/03/25 00:31:17;;;;;;;4.93;2.90;;;;;;;7.28;100.00;99822.41;7397386;19;20055;-68
2023/03/25 00:33:45;;;;;;;4.95;2.80;;;;;;;7.28;100.00;99825.00;7396665;19;20042;-68
2023/03/25 00:36:16;;;;;;;2.80;2.50;;;;;;;7.31;100.00;99819.69;7397111;19;20439;-68
2023/03/25 00:38:46;;;;;;;5.68;3.13;;;;;;;7.32;100.00;99824.03;7395892;19;20023;-68
2023/03/25 00:41:21;;;;;;;6.40;3.67;;;;;;;7.33;100.00;99819.69;7397076;19;20524;-68
2023/03/25 00:43:50;;;;;;;8.13;3.55;;;;;;;7.33;100.00;99817.94;7395486;19;20019;-67
2023/03/25 00:46:21;;;;;;;3.40;3.10;;;;;;;7.33;100.00;99824.91;7397203;19;20077;-68
2023/03/25 00:48:51;;;;;;;4.93;3.85;;;;;;;7.33;100.00;99822.31;7397490;19;20014;-69
2023/03/25 00:51:20;;;;;;;3.63;3.25;;;;;;;7.33;100.00;99819.69;7394618;19;20091;-68
2023/03/25 00:53:51;;;;;;;4.85;4.03;;;;;;;7.31;100.00;99819.69;7395751;19;20014;-67
2023/03/25 00:56:20;;;;;;;5.40;3.55;;;;;;;7.31;100.00;99814.50;7397366;19;20011;-68
2023/03/25 00:58:48;;;;;;;6.97;3.92;;;;;;;7.31;100.00;99811.03;7395040;19;20018;-67
2023/03/25 01:01:22;;;;;;;5.18;4.20;;;;;;;7.29;100.00;99808.47;7394962;19;20014;-69
2023/03/25 01:03:56;;;;;;;4.22;3.80;;;;;;;7.29;100.00;99802.38;7395046;19;20014;-69
2023/03/25 01:06:27;;;;;;;6.43;4.60;;;;;;;7.29;100.00;99794.53;7396268;19;20025;-68
2023/03/25 01:08:57;;;;;;;4.90;4.38;;;;;;;7.29;100.00;99794.53;7396109;19;20377;-69
2023/03/25 01:11:28;;;;;;;6.85;4.55;;;;;;;7.28;100.00;99785.00;7395822;19;20394;-69
2023/03/25 01:13:58;;;;;;;5.70;4.40;;;;;;;7.29;100.00;99784.97;7394738;19;20538;-69
2023/03/25 01:16:30;;;;;;;5.55;4.53;;;;;;;7.30;100.00;99784.09;7394929;19;20028;-68
2023/03/25 01:18:59;;;;;;;8.15;4.70;;;;;;;7.29;100.00;99782.38;7394863;19;20035;-68
2023/03/25 01:21:27;;;;;;;5.63;4.30;;;;;;;7.29;100.00;99776.28;7396043;19;20380;-68
2023/03/25 01:23:56;;;;;;;6.95;4.63;;;;;;;7.30;100.00;99780.59;7394790;19;20025;-68
2023/03/25 01:26:24;;;;;;;9.15;4.57;;;;;;;7.30;100.00;99778.00;7395565;19;20021;-68
2023/03/25 01:28:52;;;;;;;5.55;4.53;;;;;;;7.32;100.00;99778.84;7395909;19;20035;-68
2023/03/25 01:31:21;;;;;;;7.35;4.75;;;;;;;7.32;100.00;99777.06;7396848;19;20017;-68
2023/03/25 01:33:53;;;;;;;7.55;4.22;;;;;;;7.33;100.00;99778.78;7394906;19;20537;-68
2023/03/25 01:36:23;;;;;;;6.80;4.55;;;;;;;7.36;100.00;99774.41;7395385;19;20021;-68
2023/03/25 01:38:52;;;;;;;9.45;5.25;;;;;;;7.39;100.00;99771.69;7394386;19;20014;-68
2023/03/25 01:41:21;;;;;;;10.60;5.13;;;;;;;7.39;100.00;99766.50;7395308;19;20082;-68
2023/03/25 01:44:03;;;;;;;6.97;4.80;;;;;;;7.41;100.00;99764.72;7394008;19;20485;-68
2023/03/25 01:46:32;;;;;;;6.30;4.55;;;;;;;7.40;100.00;99753.41;7395908;19;20011;-68
2023/03/25 01:49:06;;;;;;;6.25;5.43;;;;;;;7.43;100.00;99752.47;7395302;19;20081;-68
2023/03/25 01:51:36;;;;;;;;;;;;;;;7.44;100.00;99757.66;7395298;19;20021;-68
2023/03/25 01:54:05;;;;;;;6.45;5.05;;;;;;;7.44;100.00;99743.75;7393993;19;19930;-68
2023/03/25 01:56:36;;;;;;;6.97;5.35;;;;;;;7.46;100.00;99747.19;7395147;19;20014;-68
2023/03/25 01:59:07;;;;;;;7.13;5.40;;;;;;;7.49;100.00;99744.47;7393781;19;20018;-68
2023/03/25 02:01:35;;;;;;;9.43;5.78;;;;;;;7.50;100.00;99740.97;7392916;19;20015;-68
2023/03/25 02:04:11;;;;;;;11.57;6.68;;;;;;;7.50;100.00;99739.22;7393122;19;20014;-68
2023/03/25 02:06:44;;;;;;;9.20;5.90;;;;;;;7.52;100.00;99740.94;7395258;19;20042;-68
2023/03/25 02:09:15;;;;;;;7.53;5.90;;;;;;;7.53;100.00;99732.22;7395184;19;20077;-68
2023/03/25 02:11:43;;;;;;;8.07;5.22;;;;;;;7.53;100.00;99720.00;7393383;19;20019;-68
2023/03/25 02:14:15;;;;;;;9.70;7.05;;;;;;;7.53;100.00;99725.22;7393555;19;20163;-69
2023/03/25 02:16:50;;;;;;;8.18;6.25;;;;;;;7.52;100.00;99715.72;7395153;19;20094;-67
2023/03/25 02:20:04;;;;;;;9.32;6.53;;;;;;;7.54;100.00;99719.13;7395098;19;20389;-69
2023/03/25 02:23:15;;;;;;;14.38;6.30;;;;;;;7.54;100.00;99713.91;7399616;19;20050;-68
2023/03/25 02:26:09;;;;;;;8.05;6.00;;;;;;;7.56;100.00;99712.13;7402040;19;20019;-69
2023/03/25 02:28:41;;;;;;;7.40;6.18;;;;;;;7.54;100.00;99708.69;7399903;19;20074;-69
2023/03/25 02:31:27;;;;;;;10.27;6.45;;;;;;;7.54;100.00;99700.00;7401447;19;20478;-69
2023/03/25 02:34:30;;;;;;;7.93;5.40;;;;;;;7.53;100.00;99701.75;7400040;19;20019;-69
2023/03/25 02:37:39;;;;;;;9.73;5.78;;;;;;;7.53;100.00;99706.97;7400544;19;20365;-75
2023/03/25 02:40:13;;;;;;;8.85;5.93;;;;;;;7.53;100.00;99703.50;7401112;19;20014;-71
2023/03/25 02:42:49;;;;;;;10.63;5.30;;;;;;;7.53;100.00;99704.34;7401003;19;20017;-71
2023/03/25 02:45:24;;;;;;;8.52;4.60;;;;;;;7.56;100.00;99706.91;7399026;19;20078;-71
2023/03/25 02:47:59;;;;;;;10.07;5.30;;;;;;;7.56;100.00;99700.84;7401510;19;20082;-71
2023/03/25 02:50:32;;;;;;;7.28;4.30;;;;;;;7.58;100.00;99704.25;7400824;19;20010;-72
2023/03/25 02:53:05;;;;;;;6.60;4.65;;;;;;;7.56;100.00;99699.06;7400158;19;20018;-71
2023/03/25 02:55:40;;;;;;;7.30;4.00;;;;;;;7.63;100.00;99703.25;7401371;19;20014;-71
2023/03/25 02:58:13;;;;;;;5.45;3.85;;;;;;;7.65;99.90;99711.88;7399814;19;20558;-71
2023/03/25 03:00:42;;;;;;;5.80;3.42;;;;;;;7.65;100.00;99701.41;7401159;19;20018;-71
2023/03/25 03:03:10;;;;;;;4.57;3.65;;;;;;;7.69;100.00;99701.38;7399330;19;20493;-71
2023/03/25 03:05:42;;;;;;;6.15;3.50;;;;;;;7.71;100.00;99700.41;7397626;19;20545;-71
2023/03/25 03:08:32;;;;;;;6.70;3.20;;;;;;;7.73;100.00;99700.38;7400084;19;20074;-71
2023/03/25 03:11:13;;;;;;;9.00;3.50;;;;;;;7.68;100.00;99683.97;7400851;19;20087;-72
2023/03/25 03:14:08;;;;;;;5.70;3.67;;;;;;;7.70;100.00;99690.03;7399123;19;20465;-71
2023/03/25 03:16:47;;;;;;;10.73;3.20;;;;;;;7.72;100.00;99694.31;7397942;19;20015;-71
2023/03/25 03:19:33;;;;;;;4.15;3.03;;;;;;;7.70;100.00;99692.63;7398046;19;20135;-71
2023/03/25 03:22:12;;;;;;;7.65;3.30;;;;;;;7.71;100.00;99689.09;7398059;19;20086;-70
2023/03/25 03:24:44;;;;;;;5.45;3.47;;;;;;;7.72;100.00;99691.69;7396997;19;20046;-71
2023/03/25 03:27:24;;;;;;;7.57;3.33;;;;;;;7.72;100.00;99701.25;7399603;19;20541;-71
2023/03/25 03:29:57;;;;;;;5.93;3.42;;;;;;;7.73;100.00;99700.38;7399284;19;20023;-71
2023/03/25 03:32:33;;;;;;;5.13;3.03;;;;;;;7.71;100.00;99689.97;7398579;19;20081;-71
2023/03/25 03:35:06;;;;;;;5.47;3.13;;;;;;;7.71;100.00;99689.09;7399256;19;20041;-70
2023/03/25 03:37:38;;;;;;;8.47;3.60;;;;;;;7.70;100.00;99690.88;7399740;19;20086;-70
2023/03/25 03:40:11;;;;;;;5.45;3.42;;;;;;;7.70;100.00;99697.84;7399831;19;20021;-70
2023/03/25 03:42:46;;;;;;;4.45;2.85;;;;;;;7.68;100.00;99695.25;7397193;19;20084;-70
2023/03/25 03:45:21;;;;;;;7.78;3.10;;;;;;;7.68;100.00;99700.47;7399791;19;20019;-70
2023/03/25 03:47:54;;;;;;;4.00;2.75;;;;;;;7.65;100.00;99701.41;7397398;19;20074;-70
2023/03/25 03:50:28;;;;;;;5.25;2.97;;;;;;;7.65;100.00;99698.81;7398157;19;20090;-71
2023/03/25 03:53:08;;;;;;;4.30;3.17;;;;;;;7.62;100.00;99696.28;7398203;19;20358;-70
2023/03/25 03:55:42;;;;;;;9.35;2.95;;;;;;;7.62;99.50;99704.13;7399402;19;20019;-70
2023/03/25 03:58:16;;;;;;;;;;;;;;;7.60;98.35;99697.25;7399501;19;20015;-70
2023/03/25 04:00:51;;;;;;;3.53;2.20;;;;;;;7.61;99.92;99701.56;7399046;19;19915;-70
2023/03/25 04:03:24;;;;;;;5.85;2.13;;;;;;;7.60;99.78;99703.31;7396734;19;20042;-71
2023/03/25 04:05:57;;;;;;;1.70;1.30;;;;;;;7.61;99.01;99699.81;7398648;19;20376;-71
2023/03/25 04:08:30;;;;;;;3.03;1.90;;;;;;;7.64;99.65;99706.69;7398934;19;20018;-71
2023/03/25 04:11:04;;;;;;;5.80;1.60;;;;;;;7.64;98.04;99698.88;7398576;19;20070;-70
2023/03/25 04:13:41;;;;;;;6.03;1.40;;;;;;;7.66;97.97;99703.16;7397019;19;20388;-71
2023/03/25 04:16:11;;;;;;;5.85;1.63;;;;;;;7.68;98.56;99710.94;7398022;19;20541;-72
2023/03/25 04:18:39;;;;;;;3.30;1.63;;;;;;;7.70;97.62;99710.91;7397208;19;20029;-70
2023/03/25 04:21:09;;;;;;;3.45;1.73;;;;;;;7.74;96.16;99710.75;7398200;19;20021;-71
2023/03/25 04:23:40;;;;;;;3.95;1.08;;;;;;;7.77;96.05;99718.53;7396940;19;20019;-71
2023/03/25 04:26:08;;;;;;;3.58;0.90;;;;;;;7.81;95.64;99721.94;7397440;19;20019;-71
2023/03/25 04:28:40;;;;;;;2.38;1.05;;;;;;;7.83;94.34;99723.59;7397436;19;20596;-70
2023/03/25 04:31:14;;;;;;;2.75;0.75;;;;;;;7.88;94.55;99728.69;7395421;19;20019;-71
2023/03/25 04:33:45;;;;;;;1.30;0.85;;;;;;;7.91;93.84;99728.63;7396732;19;20022;-71
2023/03/25 04:36:14;;;;;;;4.28;0.98;;;;;;;7.95;93.43;99729.38;7395342;19;20427;-71
2023/03/25 04:38:51;;;;;;;2.75;0.70;;;;;;;7.96;92.72;99724.13;7396757;19;20010;-71
2023/03/25 04:41:20;;;;;;;3.90;0.90;;;;;;;7.99;93.29;99733.63;7397686;19;20014;-71
2023/03/25 04:43:51;;;;;;;2.55;0.93;;;;;;;7.99;94.15;99731.00;7395866;19;20078;-71
2023/03/25 04:46:20;;;;;;;2.50;0.80;;;;;;;8.02;94.64;99736.13;7397278;19;20029;-71
2023/03/25 04:48:49;;;;;;;2.10;0.98;;;;;;;8.01;94.59;99737.03;7396577;19;20018;-71
2023/03/25 04:51:23;;;;;;;3.05;0.90;;;;;;;8.01;93.46;99729.19;7394648;19;20070;-71
2023/03/25 04:53:52;;;;;;;2.63;1.20;;;;;;;8.01;94.02;99717.91;7395526;19;20538;-71
2023/03/25 04:56:22;;;;;;;2.92;0.80;;;;;;;8.01;92.95;99720.50;7396907;19;20022;-71
2023/03/25 04:58:53;;;;;;;3.03;0.77;;;;;;;7.98;91.82;99724.06;7395012;19;20021;-71
2023/03/25 05:01:29;;;;;;;3.53;0.82;;;;;;;7.96;92.66;99729.34;7396130;19;20019;-71
2023/03/25 05:04:03;;;;;;;2.70;0.90;;;;;;;7.95;91.86;99722.41;7395181;19;20364;-71
2023/03/25 05:06:31;;;;;;;;;;;;;;;7.93;89.33;99725.94;7397639;19;20118;-71
2023/03/25 05:09:00;;;;;;;5.50;1.10;;;;;;;7.93;93.03;99721.56;7397665;19;19935;-71
2023/03/25 05:11:29;;;;;;;1.30;0.88;;;;;;;7.90;92.79;99723.41;7397752;19;20042;-71
2023/03/25 05:14:00;;;;;;;3.25;0.77;;;;;;;7.87;92.55;99724.34;7395248;19;20029;-71
2023/03/25 05:16:28;;;;;;;1.83;1.13;;;;;;;7.88;93.25;99722.63;7395966;19;20014;-71
2023/03/25 05:18:57;;;;;;;6.85;1.67;;;;;;;7.86;93.35;99730.50;7394954;19;20090;-71
2023/03/25 05:21:26;;;;;;;1.77;0.80;;;;;;;7.85;92.66;99728.78;7396054;19;20077;-71
2023/03/25 05:23:56;;;;;;;1.50;0.70;;;;;;;7.86;94.06;99724.41;7393944;19;20398;-70
2023/03/25 05:26:28;;;;;;;2.60;0.90;;;;;;;7.81;90.95;99738.44;7395673;19;20384;-70
2023/03/25 05:29:00;;;;;;;2.78;1.15;;;;;;;7.81;92.47;99732.38;7395597;19;20017;-70
2023/03/25 05:31:31;;;;;;;4.95;0.88;;;;;;;7.80;92.43;99738.50;7394353;19;20006;-71
2023/03/25 05:33:59;;;;;;;6.00;0.80;;;;;;;7.79;93.21;99739.38;7394841;19;20086;-71
2023/03/25 05:36:28;;;;;;;2.33;0.80;;;;;;;7.78;92.29;99733.28;7393669;19;20014;-71
2023/03/25 05:38:58;;;;;;;5.15;1.00;;;;;;;7.79;92.59;99742.84;7394936;19;20098;-71
2023/03/25 05:41:31;;;;;;;2.92;1.00;;;;;;;7.79;89.73;99736.75;7395034;19;20449;-71
2023/03/25 05:44:00;;;;;;;2.70;0.70;;;;;;;7.81;89.89;99738.44;7393754;19;20018;-71
2023/03/25 05:46:31;;;;;;;3.63;0.90;;;;;;;7.82;92.23;99737.56;7395469;19;20082;-71
2023/03/25 05:49:00;;;;;;;3.05;1.02;;;;;;;7.86;92.05;99740.94;7395502;19;20018;-71
2023/03/25 05:51:32;;;;;;;3.47;1.30;;;;;;;7.87;91.45;99745.25;7394515;19;20006;-71
2023/03/25 05:54:01;;;;;;;2.75;0.80;;;;;;;7.88;90.98;99746.97;7391752;19;20030;-71
2023/03/25 05:56:30;;;;;;;3.53;1.00;;;;;;;7.93;92.03;99760.75;7395183;19;20026;-71
2023/03/25 05:58:58;;;;;;;2.45;1.08;;;;;;;7.96;91.86;99755.47;7392737;19;20011;-71
2023/03/25 06:01:27;;;;;;;2.40;0.80;;;;;;;8.02;91.36;99761.41;7395041;19;20026;-71
2023/03/25 06:03:59;;;;;;;2.72;0.68;;;;;;;8.03;90.72;99757.91;7393261;19;20425;-70
2023/03/25 06:06:28;;;;;;;4.30;0.70;;;;;;;8.04;92.14;99762.22;7395339;19;20026;-71
2023/03/25 06:08:57;;;;;;;2.92;0.90;;;;;;;8.04;91.82;99767.44;7394905;19;20018;-71
2023/03/25 06:11:26;;;;;;;1.70;0.98;;;;;;;8.04;93.01;99765.69;7394684;19;20014;-71
2023/03/25 06:13:54;;;;;;;3.45;0.80;;;;;;;8.03;90.27;99769.19;7393146;19;20022;-71
2023/03/25 06:16:26;;;;;;;2.08;0.52;;;;;;;8.02;91.42;99777.09;7394454;19;20078;-71
2023/03/25 06:18:58;;;;;;;6.00;1.10;;;;;;;8.00;92.24;99777.13;7394243;19;20018;-70
2023/03/25 06:21:28;;;;;;;2.20;0.73;;;;;;;7.99;93.51;99768.44;7394895;19;20011;-71
2023/03/25 06:23:59;;;;;;;1.92;0.65;;;;;;;7.98;94.14;99760.63;7393062;19;20029;-71
2023/03/25 06:26:28;;;;;;;0.95;0.60;;;;;;;7.96;94.65;99750.25;7394255;19;20375;-70
2023/03/25 06:28:57;;;;;;;2.10;0.60;;;;;;;7.95;94.24;99753.75;7394279;19;20015;-70
2023/03/25 06:31:32;;;;;;;2.85;0.68;;;;;;;7.93;94.90;99752.91;7393968;19;20038;-71
2023/03/25 06:34:04;;;;;;;2.75;1.00;;;;;;;7.94;95.13;99754.63;7393810;19;20023;-70
2023/03/25 06:36:33;;;;;;;2.17;1.40;;;;;;;7.96;95.34;99741.53;7395358;19;20014;-69
2023/03/25 06:39:04;;;;;;;3.45;2.05;;;;;;;7.98;95.12;99748.41;7394601;19;20377;-70
2023/03/25 06:41:34;;;;;;;4.00;2.63;;;;;;;7.98;94.77;99748.41;7395980;19;20022;-71
2023/03/25 06:44:03;;;;;;;5.47;2.90;;;;;;;8.02;94.07;99750.97;7394166;19;20037;-71
2023/03/25 06:46:32;;;;;;;9.48;3.58;;;;;;;8.05;94.04;99754.34;7395083;19;20015;-70
2023/03/25 06:49:03;;;;;;;5.05;2.38;;;;;;;8.08;93.15;99758.63;7394637;19;20019;-71
2023/03/25 06:51:32;;;;;;;5.00;1.45;;;;;;;8.12;93.81;99762.88;7392582;19;20070;-71
2023/03/25 06:54:00;;;;;;;8.52;3.50;;;;;;;8.18;93.17;99761.88;7391601;19;20092;-71
2023/03/25 06:56:29;;;;;;;5.22;2.20;;;;;;;8.23;93.60;99765.22;7391350;19;20074;-71
2023/03/25 06:58:57;;;;;;;4.30;1.27;;;;;;;8.30;93.12;99766.72;7392591;19;20014;-70
2023/03/25 07:01:25;;;;;;;2.25;1.10;;;;;;;8.35;89.52;99764.84;7392413;19;20494;-71
2023/03/25 07:03:54;;;;;;;3.88;1.33;;;;;;;8.41;88.45;99775.13;7391703;19;20090;-70
2023/03/25 07:06:26;;;;;;;4.80;1.13;;;;;;;8.50;91.91;99770.56;7396409;19;20038;-71
2023/03/25 07:08:54;;;;;;;4.65;1.00;;;;;;;8.57;91.27;99774.75;7400141;19;20517;-71
2023/03/25 07:11:27;;;;;;;2.58;1.08;;;;;;;8.60;90.79;99767.63;7400317;19;20082;-69
2023/03/25 07:13:56;;;;;;;3.25;0.70;;;;;;;8.63;87.59;99771.91;7398428;19;20018;-70
2023/03/25 07:16:25;;;;;;;2.45;0.80;;;;;;;8.66;90.10;99776.19;7399965;19;20073;-70
2023/03/25 07:18:55;;;;;;;1.75;0.70;;;;;;;8.64;87.75;99787.59;7399835;19;20082;-71
2023/03/25 07:21:26;;;;;;;2.28;1.10;;;;;;;8.67;88.32;99775.31;7399593;19;20494;-71
2023/03/25 07:23:55;;;;;;;3.35;0.95;;;;;;;8.68;89.22;99777.03;7398160;19;20423;-71
2023/03/25 07:26:23;;;;;;;1.95;0.70;;;;;;;8.70;85.23;99783.06;7399877;19;20099;-71
2023/03/25 07:28:52;;;;;;;4.97;0.90;;;;;;;8.72;88.23;99781.25;7397488;19;20079;-71
2023/03/25 07:31:20;;;;;;;2.08;0.60;;;;;;;8.78;88.03;99778.47;7399631;19;20018;-71
2023/03/25 07:33:50;;;;;;;1.27;0.85;;;;;;;8.80;86.45;99771.44;7397740;19;20086;-70
2023/03/25 07:36:20;;;;;;;1.48;0.73;;;;;;;8.90;88.16;99772.88;7400824;19;20074;-70
2023/03/25 07:38:52;;;;;;;1.77;0.95;;;;;;;9.00;86.50;99768.22;7399023;19;20070;-70
2023/03/25 07:41:20;;;;;;;4.10;1.10;;;;;;;9.08;87.51;99776.66;7399405;19;20029;-69
2023/03/25 07:43:49;;;;;;;2.25;0.80;;;;;;;9.15;86.11;99772.13;7397590;19;20078;-71
2023/03/25 07:46:17;;;;;;;2.40;0.70;;;;;;;9.23;83.68;99767.47;7398806;19;20082;-70
2023/03/25 07:48:46;;;;;;;2.13;0.70;;;;;;;9.31;85.60;99774.25;7399270;19;20019;-70
2023/03/25 07:51:14;;;;;;;2.92;0.77;;;;;;;9.41;86.15;99773.03;7397739;19;20079;-71
2023/03/25 07:53:44;;;;;;;1.85;0.65;;;;;;;9.49;83.55;99773.66;7396968;19;20022;-70
2023/03/25 07:56:15;;;;;;;5.97;1.33;;;;;;;9.61;84.25;99775.00;7398715;19;20515;-71
2023/03/25 07:58:44;;;;;;;3.10;1.00;;;;;;;9.72;82.08;99772.88;7399413;19;20103;-72
2023/03/25 08:01:13;;;;;;;2.15;0.68;;;;;;;9.84;83.16;99776.84;7397299;19;20015;-71
2023/03/25 08:03:41;;;;;;;3.13;0.90;;;;;;;9.93;79.88;99787.03;7396448;19;20022;-71
2023/03/25 08:06:10;;;;;;;1.95;0.60;;;;;;;10.05;80.30;99774.41;7397924;19;20078;-70
2023/03/25 08:08:38;;;;;;;4.53;2.13;;;;;;;10.11;80.79;99768.94;7397984;19;20082;-70
2023/03/25 08:11:08;;;;;;;3.10;1.13;;;;;;;10.21;81.19;99770.31;7397748;19;20514;-70
2023/03/25 08:13:39;;;;;;;0.95;0.55;;;;;;;10.26;76.61;99778.88;7397108;19;20014;-71
2023/03/25 08:16:13;;;;;;;1.48;0.52;;;;;;;10.31;73.05;99791.78;7394986;19;20015;-70
2023/03/25 08:18:43;;;;;;;4.05;1.55;;;;;;;10.38;79.09;99779.38;7396898;19;20479;-71
2023/03/25 08:21:12;;;;;;;2.70;1.40;;;;;;;10.41;76.31;99785.38;7396243;19;20039;-70
2023/03/25 08:23:40;;;;;;;3.20;0.73;;;;;;;10.42;75.11;99791.47;7396183;19;20074;-70
2023/03/25 08:26:09;;;;;;;4.50;0.68;;;;;;;10.42;70.58;99794.06;7397296;19;20074;-70
2023/03/25 08:28:40;;;;;;;3.00;0.75;;;;;;;10.39;68.93;99794.19;7397541;19;20018;-70
2023/03/25 08:31:10;;;;;;;2.97;0.50;;;;;;;10.31;68.22;99797.03;7396121;19;20015;-69
2023/03/25 08:33:41;;;;;;;3.00;0.60;;;;;;;10.23;68.84;99789.44;7395968;19;20116;-70
2023/03/25 08:36:12;;;;;;;2.47;0.55;;;;;;;10.20;74.14;99793.97;7397490;19;20082;-70
2023/03/25 08:38:41;;;;;;;4.10;0.60;;;;;;;10.14;74.65;99792.41;7396759;19;20387;-72
2023/03/25 08:41:10;;;;;;;3.13;0.57;;;;;;;10.10;72.50;99803.91;7395593;19;20086;-71
2023/03/25 08:43:41;;;;;;;2.15;0.77;;;;;;;10.06;74.69;99792.69;7395661;19;20027;-71
2023/03/25 08:46:10;;;;;;;3.13;0.70;;;;;;;10.06;74.01;99794.44;7396486;19;20070;-71
2023/03/25 08:48:39;;;;;;;2.00;0.60;;;;;;;10.02;69.89;99790.22;7396134;19;20498;-70
2023/03/25 08:51:08;;;;;;;5.32;0.85;;;;;;;10.03;74.84;99810.28;7395862;19;20423;-70
2023/03/25 08:53:37;;;;;;;2.45;0.70;;;;;;;10.02;74.87;99792.84;7396118;19;20094;-70
2023/03/25 08:56:06;;;;;;;4.07;1.15;;;;;;;10.03;75.67;99792.78;7394664;19;20078;-70
2023/03/25 08:58:34;;;;;;;2.85;0.70;;;;;;;10.03;70.00;99794.56;7396588;19;20049;-70
2023/03/25 09:01:06;;;;;;;3.55;0.80;;;;;;;10.08;73.81;99797.88;7394615;19;20421;-70
2023/03/25 09:03:37;;;;;;;2.83;0.95;;;;;;;10.15;75.29;99788.88;7395541;19;20026;-71
2023/03/25 09:06:06;;;;;;;1.50;0.80;;;;;;;10.23;70.34;99797.31;7396629;19;20014;-70
2023/03/25 09:08:35;;;;;;;1.88;0.60;;;;;;;10.33;70.60;99795.22;7394120;19;20074;-70
2023/03/25 09:11:04;;;;;;;2.13;0.57;;;;;;;10.40;72.41;99795.88;7396189;19;20106;-70
2023/03/25 09:13:33;;;;;;;0.95;0.45;;;;;;;10.50;71.14;99792.03;7394928;19;20513;-70
2023/03/25 09:16:01;;;;;;;2.17;0.60;;;;;;;10.53;70.93;99807.66;7395980;19;20081;-70
2023/03/25 09:18:35;;;;;;;3.53;0.73;;;;;;;10.58;70.27;99803.09;7396335;19;20031;-70
2023/03/25 09:21:04;;;;;;;6.55;2.30;;;;;;;10.59;67.35;99790.84;7394362;19;20022;-71
2023/03/25 09:23:33;;;;;;;4.43;0.73;;;;;;;10.63;70.94;99795.06;7394560;19;20011;-70
2023/03/25 09:26:04;;;;;;;5.65;0.50;;;;;;;10.63;69.42;99816.06;7393606;19;20014;-70
2023/03/25 09:28:32;;;;;;;1.17;0.40;;;;;;;10.65;66.61;99802.88;7392443;19;20421;-71
2023/03/25 09:31:08;;;;;;;1.15;0.50;;;;;;;10.69;64.27;99817.56;7395360;19;20022;-72
2023/03/25 09:33:39;;;;;;;1.58;0.60;;;;;;;10.73;67.93;99804.28;7393932;19;20086;-71
2023/03/25 09:36:08;;;;;;;0.45;0.35;;;;;;;10.79;66.37;99808.44;7393386;19;20429;-70
2023/03/25 09:38:36;;;;;;;0.63;0.30;;;;;;;10.84;64.76;99832.78;7395276;19;20106;-71
2023/03/25 09:41:18;;;;;;;1.15;0.60;;;;;;;10.91;64.62;99796.66;7394186;19;20078;-70
2023/03/25 09:43:58;;;;;;;2.30;0.75;;;;;;;10.94;62.41;99816.66;7394614;19;20035;-71
2023/03/25 09:46:26;;;;;;;1.38;0.40;;;;;;;11.01;64.82;99807.66;7394800;19;20014;-71
2023/03/25 09:48:59;;;;;;;1.42;0.57;;;;;;;11.05;64.69;99814.50;7394818;19;20006;-71
2023/03/25 09:51:31;;;;;;;1.10;0.40;;;;;;;11.13;66.56;99808.94;7394049;19;20356;-70
2023/03/25 09:54:05;;;;;;;5.72;2.55;;;;;;;11.19;65.49;99806.91;7393607;19;20023;-71
2023/03/25 09:56:38;;;;;;;3.33;0.60;;;;;;;11.23;63.83;99800.66;7392723;19;20542;-70
2023/03/25 09:59:12;;;;;;;1.67;0.45;;;;;;;11.22;66.84;99809.44;7395084;19;20010;-70
2023/03/25 10:01:48;;;;;;;2.92;0.68;;;;;;;11.30;67.78;99803.88;7393333;19;20425;-71
2023/03/25 10:04:48;;;;;;;1.52;0.80;;;;;;;11.30;63.62;99800.38;7392100;19;20018;-71
2023/03/25 10:07:38;;;;;;;2.40;0.68;;;;;;;11.28;62.23;99810.94;7392592;19;20081;-70
2023/03/25 10:10:17;;;;;;;0.93;0.50;;;;;;;11.30;67.57;99809.13;7392454;19;20089;-70
2023/03/25 10:12:52;;;;;;;1.42;0.55;;;;;;;11.32;63.54;99807.31;7391517;19;20022;-69
2023/03/25 10:15:32;;;;;;;1.65;0.65;;;;;;;11.31;64.85;99813.47;7394651;19;20024;-70
2023/03/25 10:18:10;;;;;;;1.10;0.75;;;;;;;11.28;62.36;99808.31;7392146;19;20014;-70
2023/03/25 10:20:49;;;;;;;1.08;0.50;;;;;;;11.30;64.00;99806.50;7392530;19;20022;-70
2023/03/25 10:23:27;;;;;;;1.13;0.50;;;;;;;11.33;61.45;99797.66;7392574;19;20019;-69
2023/03/25 10:26:01;;;;;;;2.15;0.55;;;;;;;11.38;62.88;99793.06;7393353;19;20380;-70
2023/03/25 10:28:34;;;;;;;1.65;0.50;;;;;;;11.42;64.25;99786.75;7392704;19;20070;-70
2023/03/25 10:31:04;;;;;;;0.85;0.35;;;;;;;11.50;64.69;99783.81;7392593;19;20504;-70
2023/03/25 10:33:37;;;;;;;2.08;0.60;;;;;;;11.60;63.82;99784.31;7391720;19;20039;-70
2023/03/25 10:36:16;;;;;;;0.40;0.30;;;;;;;11.70;59.15;99776.00;7393107;19;20022;-70
2023/03/25 10:38:46;;;;;;;1.65;0.40;;;;;;;11.81;62.22;99799.16;7392575;19;20015;-70
2023/03/25 10:41:22;;;;;;;1.48;0.77;;;;;;;11.84;59.46;99787.66;7395725;19;20023;-70
2023/03/25 10:43:52;;;;;;;1.95;0.50;;;;;;;11.86;58.86;99799.81;7398834;19;20133;-70
2023/03/25 10:46:28;;;;;;;1.70;0.60;;;;;;;11.80;57.88;99783.47;7399389;19;20085;-70
2023/03/25 10:48:57;;;;;;;2.28;0.60;;;;;;;11.83;61.88;99780.72;7399388;19;20024;-69
2023/03/25 10:51:36;;;;;;;1.40;0.40;;;;;;;11.78;58.84;99787.94;7398590;19;20021;-69
2023/03/25 10:54:06;;;;;;;1.60;0.60;;;;;;;11.73;57.73;99788.16;7397453;19;20015;-70
2023/03/25 10:56:38;;;;;;;1.65;0.60;;;;;;;11.67;60.80;99791.88;7399453;19;20026;-70
2023/03/25 10:59:15;;;;;;;1.35;0.55;;;;;;;11.63;61.53;99781.56;7399007;19;20423;-69
2023/03/25 11:01:45;;;;;;;2.92;0.40;;;;;;;11.59;60.08;99793.97;7397592;19;20074;-70
2023/03/25 11:04:18;;;;;;;0.95;0.45;;;;;;;11.61;60.27;99770.25;7397229;19;20115;-69
2023/03/25 11:06:56;;;;;;;2.10;0.50;;;;;;;11.64;59.91;99778.00;7396934;19;20022;-70
2023/03/25 11:09:29;;;;;;;2.20;0.70;;;;;;;11.69;62.81;99776.91;7399927;19;20046;-70
2023/03/25 11:12:00;;;;;;;0.73;0.40;;;;;;;11.79;63.13;99774.75;7399386;19;20363;-70
2023/03/25 11:14:31;;;;;;;1.13;0.50;;;;;;;11.87;59.99;99771.78;7397222;19;20018;-70
2023/03/25 11:17:03;;;;;;;1.20;0.40;;;;;;;11.91;60.79;99776.00;7399108;19;20388;-70
2023/03/25 11:19:38;;;;;;;0.90;0.35;;;;;;;11.92;58.63;99758.44;7399253;19;20010;-72
2023/03/25 11:22:17;;;;;;;2.72;0.60;;;;;;;11.96;58.08;99763.53;7397574;19;20039;-69
2023/03/25 11:24:49;;;;;;;1.90;0.60;;;;;;;11.98;59.10;99752.94;7397578;19;20081;-68
2023/03/25 11:27:21;;;;;;;0.95;0.50;;;;;;;12.02;59.82;99758.00;7399638;19;20023;-69
2023/03/25 11:29:55;;;;;;;2.38;0.57;;;;;;;12.08;58.13;99746.38;7399219;19;20366;-74
2023/03/25 11:32:26;;;;;;;1.38;0.50;;;;;;;12.19;60.99;99744.09;7399719;19;20087;-69
2023/03/25 11:34:55;;;;;;;2.10;0.75;;;;;;;12.31;61.49;99747.13;7397448;19;20533;-69
2023/03/25 11:37:27;;;;;;;1.50;0.43;;;;;;;12.44;61.48;99744.81;7399476;19;20078;-70
2023/03/25 11:39:57;;;;;;;0.82;0.28;;;;;;;12.50;56.38;99748.00;7399730;19;20018;-70
2023/03/25 11:42:33;;;;;;;2.42;0.52;;;;;;;12.47;57.53;99740.25;7396955;19;20094;-69
2023/03/25 11:45:03;;;;;;;1.63;0.30;;;;;;;12.41;58.52;99750.19;7399533;19;20027;-70
2023/03/25 11:47:34;;;;;;;2.05;0.40;;;;;;;12.29;62.00;99752.44;7398536;19;20541;-68
2023/03/25 11:50:03;;;;;;;0.95;0.35;;;;;;;12.10;63.91;99752.41;7398062;19;20023;-69
2023/03/25 11:52:41;;;;;;;1.27;0.40;;;;;;;11.79;66.18;99753.72;7394295;19;20430;-70
2023/03/25 11:55:19;;;;;;;2.17;1.00;;;;;;;11.50;68.90;99758.44;7398529;19;20015;-70
2023/03/25 11:57:49;;;;;;;2.05;0.45;;;;;;;11.26;70.10;99744.53;7398047;19;20026;-70
2023/03/25 12:00:39;;;;;;;1.65;0.80;;;;;;;11.14;71.45;99740.63;7398587;19;20014;-71